Main page
METAR-TAF:

METAR-TAF

Airports :

Sarasota–Bradenton International Airport

Sarasota / Bradenton, Florida, United States

latitude: 27-24-05N, longitude: 082-33-31W, elevation: 30 ft

Current weather observation

The report was made 23 minutes ago, at 07:53 UTC
Wind 9 mph from the East
Temperature 70°F
Humidity 78%
Pressure 30.06 in. Hg
Visibility: 10 miles
Clear sky

METAR: KSRQ 180753Z AUTO 08008KT 10SM CLR 21/17 A3006 RMK AO2 SLP178 T02060167 $

Time: 04:16 (08:16 UTC)

Forecast

The report was made 2 hours and 47 minutes ago, at 05:29 UTC
Forecast valid from 18 at 06 UTC to 19 at 06 UTC
Wind 8 mph from the East/Northeast
Visibility: 6 miles
Few clouds at a height of 25000 ft
From 18 at 1400 UTC
Wind 14 mph from the East with gusts up to 21 mph
Visibility: 6 miles
Few clouds at a height of 5000 ft
Scattered clouds at a height of 25000 ft

TAF: KSRQ 180529Z 1806/1906 07007KT P6SM FEW250 FM181400 09012G18KT P6SM FEW050 SCT250

Weather observations and forecasts of more than 4000 airports (METAR and TAF reports).

The available stations are represented by yellow and red dots on the map.

Hover mouse over dot to see the name of the station.

Then click to see weather observations and forecasts.

To change the map : click on the green buttons with a black cross to zoom in, on the green button with a dash to zoom out, or on the green arrows for adjacent maps.


METAR-TAF: